MSR879 HECA-DNKN
Flight info
| Callsign | MSR879 |
|---|---|
| Flight time | 4h 20m |
| Altitude | 39000 |
| Route | CVO W8 AST V608 TONTU L323 ELOXO/N0473F400 L323 ASKOL M863 KITOB UM863 IPONO UG622 TAPAK UR778 UDABO DCT DETAR DETAR1S |
| Aircraft | A332/H-SDE3GHIJ2J3J5M1RVWXY/LB2D1 |
Departure
| Time | 2026-04-28 17:29 |
|---|---|
| Airport | Cairo International Airport (HECA) |
Arrival
| Time | 2026-04-28 21:50 |
|---|---|
| Airport | Mallam Aminu Kano International Airport (DNKN) |
| Time | Latitude | Longitude | Altitude | Speed | Heading |
|---|---|---|---|---|---|
| 2026-04-28 16:54 | 30.10767 | 31.39183 | 378 ft | 0 kts | 75° |
| 2026-04-28 17:12 | 30.10764 | 31.39168 | 351 ft | 4 kts | 78° |
| 2026-04-28 17:12 | 30.10759 | 31.39137 | 378 ft | 4 kts | 86° |
| 2026-04-28 17:13 | 30.10760 | 31.39107 | 378 ft | 4 kts | 102° |
| 2026-04-28 17:13 | 30.10769 | 31.39080 | 378 ft | 4 kts | 141° |
| 2026-04-28 17:13 | 30.10781 | 31.39072 | 378 ft | 1 kts | 165° |
| 2026-04-28 17:13 | 30.10783 | 31.39071 | 378 ft | 0 kts | 165° |
| 2026-04-28 17:23 | 30.10770 | 31.39075 | 378 ft | 4 kts | 165° |
| 2026-04-28 17:23 | 30.10734 | 31.39086 | 378 ft | 6 kts | 165° |
| 2026-04-28 17:23 | 30.10685 | 31.39101 | 378 ft | 8 kts | 165° |
| 2026-04-28 17:24 | 30.10618 | 31.39121 | 378 ft | 11 kts | 165° |
| 2026-04-28 17:24 | 30.10534 | 31.39146 | 378 ft | 13 kts | 165° |
| 2026-04-28 17:24 | 30.10449 | 31.39189 | 378 ft | 14 kts | 127° |
| 2026-04-28 17:24 | 30.10458 | 31.39297 | 378 ft | 15 kts | 75° |
| 2026-04-28 17:25 | 30.10487 | 31.39427 | 378 ft | 18 kts | 75° |
| 2026-04-28 17:25 | 30.10541 | 31.39723 | 378 ft | 17 kts | 107° |
| 2026-04-28 17:25 | 30.10439 | 31.39780 | 378 ft | 18 kts | 165° |
| 2026-04-28 17:26 | 30.10332 | 31.39758 | 378 ft | 17 kts | 227° |
| 2026-04-28 17:26 | 30.10253 | 31.39654 | 378 ft | 18 kts | 229° |
| 2026-04-28 17:26 | 30.10154 | 31.39579 | 378 ft | 17 kts | 166° |
| 2026-04-28 17:26 | 30.10060 | 31.39661 | 378 ft | 16 kts | 140° |
| 2026-04-28 17:27 | 30.10045 | 31.39675 | 378 ft | 0 kts | 139° |
| 2026-04-28 17:27 | 30.10044 | 31.39677 | 378 ft | 1 kts | 139° |
| 2026-04-28 17:27 | 30.10033 | 31.39688 | 378 ft | 4 kts | 135° |
| 2026-04-28 17:27 | 30.10008 | 31.39738 | 378 ft | 8 kts | 107° |
| 2026-04-28 17:28 | 30.10003 | 31.39812 | 377 ft | 10 kts | 89° |
| 2026-04-28 17:28 | 30.10158 | 31.40077 | 377 ft | 54 kts | 48° |
| 2026-04-28 17:28 | 30.10549 | 31.40594 | 380 ft | 115 kts | 49° |
| 2026-04-28 17:29 | 30.11201 | 31.41463 | 392 ft | 168 kts | 47° |
| 2026-04-28 17:29 | 30.12005 | 31.42577 | 811 ft | 190 kts | 47° |
| 2026-04-28 17:29 | 30.12873 | 31.43802 | 1484 ft | 204 kts | 46° |
| 2026-04-28 17:30 | 30.14052 | 31.46941 | 3042 ft | 238 kts | 90° |
| 2026-04-28 17:30 | 30.12227 | 31.50444 | 3507 ft | 283 kts | 146° |
| 2026-04-28 17:30 | 30.10388 | 31.51262 | 3617 ft | 283 kts | 173° |
| 2026-04-28 17:31 | 30.08418 | 31.51337 | 4054 ft | 283 kts | 183° |
| 2026-04-28 17:31 | 30.04462 | 31.51125 | 5170 ft | 284 kts | 185° |
| 2026-04-28 17:32 | 30.00512 | 31.50872 | 6393 ft | 288 kts | 185° |
| 2026-04-28 17:32 | 29.98493 | 31.50581 | 6856 ft | 299 kts | 190° |
| 2026-04-28 17:32 | 29.96442 | 31.50187 | 7638 ft | 296 kts | 191° |
| 2026-04-28 17:32 | 29.94426 | 31.49758 | 8513 ft | 295 kts | 192° |
| 2026-04-28 17:33 | 29.92405 | 31.49300 | 9294 ft | 296 kts | 192° |
| 2026-04-28 17:33 | 29.90391 | 31.48834 | 10124 ft | 295 kts | 192° |
| 2026-04-28 17:33 | 29.88333 | 31.48355 | 10522 ft | 310 kts | 193° |
| 2026-04-28 17:33 | 29.86906 | 31.48024 | 10695 ft | 322 kts | 194° |
| 2026-04-28 17:34 | 29.83850 | 31.47318 | 10978 ft | 347 kts | 193° |
| 2026-04-28 17:34 | 29.81423 | 31.46762 | 11179 ft | 364 kts | 193° |
| 2026-04-28 17:34 | 29.78898 | 31.46189 | 11550 ft | 374 kts | 193° |
| 2026-04-28 17:34 | 29.76332 | 31.45610 | 12185 ft | 377 kts | 193° |
| 2026-04-28 17:35 | 29.73781 | 31.45037 | 12843 ft | 378 kts | 193° |
| 2026-04-28 17:35 | 29.71191 | 31.44455 | 13505 ft | 379 kts | 194° |
| 2026-04-28 17:35 | 29.68595 | 31.43871 | 14072 ft | 382 kts | 194° |
| 2026-04-28 17:35 | 29.65993 | 31.43285 | 14484 ft | 381 kts | 194° |
| 2026-04-28 17:36 | 29.63349 | 31.42687 | 15140 ft | 390 kts | 194° |
| 2026-04-28 17:36 | 29.60677 | 31.42083 | 15850 ft | 391 kts | 194° |
| 2026-04-28 17:36 | 29.58006 | 31.41481 | 16413 ft | 394 kts | 195° |
| 2026-04-28 17:36 | 29.55295 | 31.40869 | 16824 ft | 399 kts | 195° |
| 2026-04-28 17:37 | 29.52552 | 31.40250 | 17234 ft | 404 kts | 195° |
| 2026-04-28 17:37 | 29.49817 | 31.39634 | 17686 ft | 407 kts | 195° |
| 2026-04-28 17:37 | 29.47027 | 31.39007 | 18133 ft | 410 kts | 195° |
| 2026-04-28 17:37 | 29.44218 | 31.38377 | 18543 ft | 413 kts | 195° |
| 2026-04-28 17:38 | 29.41384 | 31.37741 | 18925 ft | 415 kts | 195° |
| 2026-04-28 17:38 | 29.38543 | 31.37103 | 19321 ft | 417 kts | 195° |
| 2026-04-28 17:38 | 29.35680 | 31.36462 | 19722 ft | 420 kts | 195° |
| 2026-04-28 17:38 | 29.32805 | 31.35817 | 20102 ft | 422 kts | 195° |
| 2026-04-28 17:39 | 29.29919 | 31.35170 | 20469 ft | 424 kts | 195° |
| 2026-04-28 17:39 | 29.27006 | 31.34518 | 20842 ft | 427 kts | 195° |
| 2026-04-28 17:39 | 29.21143 | 31.33207 | 21592 ft | 431 kts | 195° |
| 2026-04-28 17:40 | 29.18228 | 31.32555 | 21947 ft | 434 kts | 195° |
| 2026-04-28 17:40 | 29.15258 | 31.31891 | 22272 ft | 437 kts | 196° |
| 2026-04-28 17:40 | 29.12257 | 31.31220 | 22567 ft | 441 kts | 196° |
| 2026-04-28 17:40 | 29.09241 | 31.30546 | 22944 ft | 443 kts | 196° |
| 2026-04-28 17:41 | 29.06203 | 31.29868 | 23326 ft | 445 kts | 196° |
| 2026-04-28 17:41 | 29.03162 | 31.29191 | 23677 ft | 447 kts | 196° |
| 2026-04-28 17:41 | 29.00103 | 31.28509 | 23956 ft | 450 kts | 196° |
| 2026-04-28 17:41 | 28.97021 | 31.27823 | 24268 ft | 452 kts | 196° |
| 2026-04-28 17:42 | 28.93924 | 31.27135 | 24583 ft | 454 kts | 196° |
| 2026-04-28 17:42 | 28.91870 | 31.26678 | 24756 ft | 456 kts | 196° |
| 2026-04-28 17:42 | 28.87717 | 31.25754 | 25111 ft | 460 kts | 197° |
| 2026-04-28 17:42 | 28.84569 | 31.25054 | 25436 ft | 461 kts | 197° |
| 2026-04-28 17:43 | 28.81412 | 31.24354 | 25752 ft | 463 kts | 197° |
| 2026-04-28 17:43 | 28.78235 | 31.23649 | 26034 ft | 466 kts | 197° |
| 2026-04-28 17:43 | 28.75046 | 31.22942 | 26343 ft | 468 kts | 197° |
| 2026-04-28 17:43 | 28.71838 | 31.22235 | 26660 ft | 470 kts | 196° |
| 2026-04-28 17:44 | 28.68577 | 31.21714 | 26952 ft | 475 kts | 193° |
| 2026-04-28 17:44 | 28.65273 | 31.21279 | 27210 ft | 480 kts | 192° |
| 2026-04-28 17:44 | 28.61942 | 31.20881 | 27507 ft | 482 kts | 192° |
| 2026-04-28 17:44 | 28.58601 | 31.20505 | 27831 ft | 484 kts | 192° |
| 2026-04-28 17:45 | 28.55239 | 31.20136 | 28133 ft | 486 kts | 192° |
| 2026-04-28 17:45 | 28.51859 | 31.19766 | 28437 ft | 488 kts | 192° |
| 2026-04-28 17:45 | 28.48463 | 31.19392 | 28752 ft | 490 kts | 192° |
| 2026-04-28 17:45 | 28.45105 | 31.19020 | 29047 ft | 493 kts | 192° |
| 2026-04-28 17:46 | 28.41684 | 31.18638 | 29242 ft | 496 kts | 192° |
| 2026-04-28 17:46 | 28.38238 | 31.18252 | 29511 ft | 498 kts | 192° |
| 2026-04-28 17:46 | 28.34777 | 31.17864 | 29795 ft | 500 kts | 192° |
| 2026-04-28 17:46 | 28.31310 | 31.17475 | 30075 ft | 502 kts | 192° |
| 2026-04-28 17:47 | 28.27820 | 31.17085 | 30350 ft | 503 kts | 192° |
| 2026-04-28 17:47 | 28.24348 | 31.16698 | 30774 ft | 500 kts | 193° |
| 2026-04-28 17:47 | 28.20891 | 31.16316 | 31239 ft | 496 kts | 193° |
| 2026-04-28 17:47 | 28.18621 | 31.16065 | 31540 ft | 494 kts | 193° |
| 2026-04-28 17:48 | 28.14059 | 31.15560 | 32184 ft | 489 kts | 194° |
| 2026-04-28 17:48 | 28.10683 | 31.15185 | 32649 ft | 486 kts | 194° |
| 2026-04-28 17:48 | 28.07327 | 31.14812 | 33122 ft | 483 kts | 194° |
| 2026-04-28 17:48 | 28.04032 | 31.14443 | 33596 ft | 481 kts | 195° |
| 2026-04-28 17:49 | 28.00708 | 31.14072 | 34056 ft | 478 kts | 195° |
| 2026-04-28 17:49 | 27.97406 | 31.13702 | 34435 ft | 476 kts | 195° |
| 2026-04-28 17:49 | 27.94107 | 31.13331 | 34704 ft | 475 kts | 196° |
| 2026-04-28 17:49 | 27.90823 | 31.12962 | 35025 ft | 474 kts | 196° |
| 2026-04-28 17:50 | 27.87535 | 31.12593 | 35341 ft | 474 kts | 196° |
| 2026-04-28 17:50 | 27.84246 | 31.12224 | 35642 ft | 473 kts | 197° |
| 2026-04-28 17:50 | 27.80968 | 31.11858 | 35958 ft | 473 kts | 197° |
| 2026-04-28 17:50 | 27.77697 | 31.11494 | 36276 ft | 472 kts | 197° |
| 2026-04-28 17:51 | 27.74461 | 31.11134 | 36574 ft | 471 kts | 197° |
| 2026-04-28 17:51 | 27.71203 | 31.10771 | 36865 ft | 471 kts | 197° |
| 2026-04-28 17:51 | 27.67947 | 31.10409 | 37141 ft | 470 kts | 197° |
| 2026-04-28 17:51 | 27.64694 | 31.10048 | 37455 ft | 469 kts | 197° |
| 2026-04-28 17:52 | 27.61456 | 31.09690 | 37761 ft | 468 kts | 198° |
| 2026-04-28 17:52 | 27.58213 | 31.09330 | 38055 ft | 467 kts | 198° |
| 2026-04-28 17:52 | 27.51758 | 31.08614 | 38638 ft | 465 kts | 198° |
| 2026-04-28 17:53 | 27.48528 | 31.08256 | 38878 ft | 465 kts | 198° |
| 2026-04-28 17:53 | 27.45303 | 31.07897 | 38970 ft | 466 kts | 198° |
| 2026-04-28 17:53 | 27.38799 | 31.07167 | 39052 ft | 474 kts | 198° |
| 2026-04-28 17:54 | 27.32173 | 31.06427 | 39052 ft | 480 kts | 197° |
| 2026-04-28 17:54 | 27.25561 | 31.05705 | 39053 ft | 480 kts | 197° |
| 2026-04-28 17:55 | 27.18916 | 31.04980 | 39022 ft | 479 kts | 197° |
| 2026-04-28 17:55 | 27.12285 | 31.04252 | 39050 ft | 479 kts | 197° |
| 2026-04-28 17:56 | 27.09014 | 31.03734 | 39043 ft | 468 kts | 204° |
| 2026-04-28 17:56 | 27.05926 | 31.02761 | 39044 ft | 455 kts | 212° |
| 2026-04-28 17:56 | 27.03089 | 31.01313 | 39046 ft | 441 kts | 220° |
| 2026-04-28 17:56 | 27.00577 | 30.99433 | 39044 ft | 429 kts | 228° |
| 2026-04-28 17:57 | 26.96423 | 30.94777 | 39055 ft | 418 kts | 236° |
| 2026-04-28 17:57 | 26.92629 | 30.89858 | 39063 ft | 416 kts | 237° |
| 2026-04-28 17:58 | 26.88893 | 30.84941 | 39061 ft | 417 kts | 237° |
| 2026-04-28 17:58 | 26.85106 | 30.80019 | 39064 ft | 417 kts | 237° |
| 2026-04-28 17:59 | 26.81296 | 30.75115 | 39054 ft | 417 kts | 237° |
| 2026-04-28 17:59 | 26.77477 | 30.70215 | 39053 ft | 417 kts | 237° |
| 2026-04-28 18:00 | 26.73685 | 30.65357 | 39054 ft | 417 kts | 237° |
| 2026-04-28 18:00 | 26.69871 | 30.60472 | 39054 ft | 417 kts | 237° |
| 2026-04-28 18:01 | 26.66054 | 30.55587 | 39044 ft | 417 kts | 237° |
| 2026-04-28 18:01 | 26.62230 | 30.50700 | 39041 ft | 417 kts | 237° |
| 2026-04-28 18:02 | 26.59051 | 30.46640 | 39040 ft | 417 kts | 237° |
| 2026-04-28 18:02 | 26.55227 | 30.41762 | 39026 ft | 417 kts | 236° |
| 2026-04-28 18:03 | 26.51402 | 30.36889 | 39036 ft | 417 kts | 237° |
| 2026-04-28 18:03 | 26.47578 | 30.32019 | 39034 ft | 417 kts | 237° |
| 2026-04-28 18:04 | 26.43757 | 30.27148 | 39028 ft | 417 kts | 237° |
| 2026-04-28 18:04 | 26.39933 | 30.22278 | 39029 ft | 417 kts | 236° |
| 2026-04-28 18:05 | 26.36741 | 30.18232 | 39029 ft | 417 kts | 236° |
| 2026-04-28 18:05 | 26.32287 | 30.12604 | 39020 ft | 417 kts | 236° |
| 2026-04-28 18:06 | 26.28441 | 30.07758 | 39022 ft | 417 kts | 236° |
| 2026-04-28 18:06 | 26.24594 | 30.02915 | 39015 ft | 417 kts | 236° |
| 2026-04-28 18:07 | 26.20753 | 29.98079 | 39015 ft | 417 kts | 236° |
| 2026-04-28 18:07 | 26.16912 | 29.93245 | 39007 ft | 417 kts | 236° |
| 2026-04-28 18:08 | 26.13082 | 29.88431 | 39005 ft | 417 kts | 236° |
| 2026-04-28 18:08 | 26.09239 | 29.83605 | 39007 ft | 417 kts | 236° |
| 2026-04-28 18:09 | 26.05391 | 29.78778 | 39000 ft | 417 kts | 236° |
| 2026-04-28 18:09 | 26.01537 | 29.73951 | 38997 ft | 417 kts | 236° |
| 2026-04-28 18:10 | 25.97677 | 29.69119 | 38994 ft | 417 kts | 236° |
| 2026-04-28 18:10 | 25.93844 | 29.64327 | 38974 ft | 417 kts | 236° |
| 2026-04-28 18:11 | 25.89981 | 29.59502 | 38986 ft | 418 kts | 236° |
| 2026-04-28 18:11 | 25.86115 | 29.54680 | 38984 ft | 418 kts | 236° |
| 2026-04-28 18:12 | 25.82242 | 29.49855 | 38985 ft | 418 kts | 236° |
| 2026-04-28 18:12 | 25.78369 | 29.45034 | 38978 ft | 418 kts | 236° |
| 2026-04-28 18:13 | 25.74496 | 29.40220 | 38970 ft | 418 kts | 236° |
| 2026-04-28 18:13 | 25.70615 | 29.35402 | 38969 ft | 419 kts | 236° |
| 2026-04-28 18:14 | 25.66749 | 29.30609 | 38962 ft | 419 kts | 235° |
| 2026-04-28 18:14 | 25.62855 | 29.25787 | 38963 ft | 419 kts | 236° |
| 2026-04-28 18:15 | 25.58965 | 29.20975 | 38965 ft | 419 kts | 236° |
| 2026-04-28 18:15 | 25.55074 | 29.16166 | 38965 ft | 418 kts | 236° |
| 2026-04-28 18:16 | 25.51185 | 29.11364 | 38952 ft | 420 kts | 235° |
| 2026-04-28 18:16 | 25.47296 | 29.06590 | 38963 ft | 422 kts | 233° |
| 2026-04-28 18:17 | 25.42681 | 29.02417 | 38959 ft | 438 kts | 220° |
| 2026-04-28 18:17 | 25.39938 | 29.00864 | 38962 ft | 450 kts | 212° |
| 2026-04-28 18:17 | 25.36918 | 28.99784 | 38962 ft | 464 kts | 203° |
| 2026-04-28 18:18 | 25.30420 | 28.98785 | 38966 ft | 476 kts | 196° |
| 2026-04-28 18:18 | 25.24930 | 28.98277 | 38959 ft | 476 kts | 195° |
| 2026-04-28 18:19 | 25.17201 | 28.97600 | 38961 ft | 476 kts | 195° |
| 2026-04-28 18:19 | 25.10643 | 28.96971 | 38963 ft | 475 kts | 196° |
| 2026-04-28 18:20 | 25.04056 | 28.96311 | 38961 ft | 475 kts | 196° |
| 2026-04-28 18:20 | 24.97468 | 28.95645 | 38973 ft | 475 kts | 195° |
| 2026-04-28 18:21 | 24.90890 | 28.94982 | 38959 ft | 475 kts | 195° |
| 2026-04-28 18:21 | 24.84303 | 28.94321 | 38960 ft | 475 kts | 195° |
| 2026-04-28 18:22 | 24.77709 | 28.93660 | 38967 ft | 475 kts | 195° |
| 2026-04-28 18:22 | 24.71167 | 28.93006 | 38970 ft | 475 kts | 195° |
| 2026-04-28 18:23 | 24.64583 | 28.92348 | 38969 ft | 475 kts | 195° |
| 2026-04-28 18:23 | 24.57992 | 28.91690 | 38966 ft | 475 kts | 195° |
| 2026-04-28 18:24 | 24.52519 | 28.91143 | 38958 ft | 475 kts | 195° |
| 2026-04-28 18:24 | 24.44831 | 28.90378 | 38952 ft | 474 kts | 195° |
| 2026-04-28 18:25 | 24.38303 | 28.89729 | 38961 ft | 473 kts | 195° |
| 2026-04-28 18:26 | 24.28455 | 28.88748 | 38960 ft | 473 kts | 195° |
| 2026-04-28 18:26 | 24.21889 | 28.88096 | 38963 ft | 474 kts | 195° |
| 2026-04-28 18:27 | 24.15336 | 28.87448 | 38955 ft | 472 kts | 195° |
| 2026-04-28 18:27 | 24.08789 | 28.86799 | 38963 ft | 472 kts | 195° |
| 2026-04-28 18:28 | 24.02250 | 28.86151 | 38963 ft | 472 kts | 195° |
| 2026-04-28 18:28 | 23.95743 | 28.85507 | 38960 ft | 472 kts | 195° |
| 2026-04-28 18:29 | 23.89200 | 28.84859 | 38948 ft | 473 kts | 195° |
| 2026-04-28 18:29 | 23.82643 | 28.84212 | 38963 ft | 473 kts | 195° |
| 2026-04-28 18:30 | 23.76081 | 28.83566 | 38958 ft | 473 kts | 195° |
| 2026-04-28 18:30 | 23.69530 | 28.82922 | 38957 ft | 472 kts | 195° |
| 2026-04-28 18:31 | 23.62985 | 28.82278 | 38948 ft | 471 kts | 194° |
| 2026-04-28 18:31 | 23.56487 | 28.81640 | 38952 ft | 471 kts | 194° |
| 2026-04-28 18:32 | 23.49944 | 28.80996 | 38952 ft | 471 kts | 194° |
| 2026-04-28 18:32 | 23.43404 | 28.80355 | 38953 ft | 471 kts | 194° |
| 2026-04-28 18:33 | 23.36872 | 28.79715 | 38934 ft | 470 kts | 194° |
| 2026-04-28 18:33 | 23.30350 | 28.79077 | 38952 ft | 470 kts | 194° |
| 2026-04-28 18:34 | 23.23875 | 28.78443 | 38954 ft | 470 kts | 194° |
| 2026-04-28 18:34 | 23.17357 | 28.77806 | 38954 ft | 470 kts | 194° |
| 2026-04-28 18:35 | 23.10835 | 28.77169 | 38955 ft | 470 kts | 194° |
| 2026-04-28 18:35 | 23.04324 | 28.76534 | 38952 ft | 470 kts | 194° |
| 2026-04-28 18:36 | 22.97848 | 28.75903 | 38953 ft | 470 kts | 194° |
| 2026-04-28 18:36 | 22.91333 | 28.75269 | 38952 ft | 470 kts | 194° |
| 2026-04-28 18:37 | 22.84815 | 28.74636 | 38952 ft | 470 kts | 194° |
| 2026-04-28 18:37 | 22.78289 | 28.74001 | 38958 ft | 471 kts | 193° |
| 2026-04-28 18:38 | 22.71754 | 28.73367 | 38949 ft | 472 kts | 193° |
| 2026-04-28 18:38 | 22.65223 | 28.72732 | 38949 ft | 471 kts | 194° |
| 2026-04-28 18:39 | 22.58966 | 28.71146 | 38957 ft | 453 kts | 210° |
| 2026-04-28 18:39 | 22.53719 | 28.67762 | 38942 ft | 439 kts | 225° |
| 2026-04-28 18:40 | 22.49151 | 28.63410 | 38950 ft | 437 kts | 228° |
| 2026-04-28 18:40 | 22.44719 | 28.58910 | 38949 ft | 436 kts | 228° |
| 2026-04-28 18:41 | 22.40289 | 28.54420 | 38956 ft | 436 kts | 228° |
| 2026-04-28 18:41 | 22.35838 | 28.49960 | 38957 ft | 436 kts | 228° |
| 2026-04-28 18:42 | 22.31371 | 28.45512 | 38957 ft | 437 kts | 228° |
| 2026-04-28 18:42 | 22.26882 | 28.41048 | 38962 ft | 440 kts | 227° |
| 2026-04-28 18:43 | 22.22375 | 28.36571 | 38969 ft | 439 kts | 227° |
| 2026-04-28 18:43 | 22.17915 | 28.32146 | 38963 ft | 438 kts | 227° |
| 2026-04-28 18:44 | 22.13419 | 28.27686 | 38963 ft | 438 kts | 227° |
| 2026-04-28 18:44 | 22.06686 | 28.21013 | 38962 ft | 438 kts | 227° |
| 2026-04-28 18:45 | 22.02197 | 28.16569 | 38968 ft | 438 kts | 227° |
| 2026-04-28 18:45 | 21.97359 | 28.12560 | 38968 ft | 444 kts | 220° |
| 2026-04-28 18:46 | 21.92216 | 28.08865 | 38962 ft | 445 kts | 219° |
| 2026-04-28 18:46 | 21.87022 | 28.05239 | 38962 ft | 445 kts | 218° |
| 2026-04-28 18:47 | 21.81827 | 28.01615 | 38965 ft | 444 kts | 219° |
| 2026-04-28 18:47 | 21.76621 | 27.97970 | 38960 ft | 447 kts | 218° |
| 2026-04-28 18:48 | 21.71408 | 27.94316 | 38964 ft | 447 kts | 218° |
| 2026-04-28 18:48 | 21.66180 | 27.90656 | 38964 ft | 447 kts | 218° |
| 2026-04-28 18:49 | 21.62722 | 27.88236 | 38963 ft | 447 kts | 218° |
| 2026-04-28 18:49 | 21.55769 | 27.83374 | 38963 ft | 447 kts | 218° |
| 2026-04-28 18:50 | 21.50532 | 27.79716 | 38963 ft | 449 kts | 218° |
| 2026-04-28 18:50 | 21.45284 | 27.76054 | 38963 ft | 450 kts | 218° |
| 2026-04-28 18:51 | 21.40923 | 27.73014 | 38963 ft | 450 kts | 218° |
| 2026-04-28 18:51 | 21.35676 | 27.69358 | 38964 ft | 450 kts | 218° |
| 2026-04-28 18:52 | 21.30428 | 27.65705 | 38964 ft | 450 kts | 218° |
| 2026-04-28 18:52 | 21.25164 | 27.62043 | 38962 ft | 451 kts | 217° |
| 2026-04-28 18:53 | 21.19894 | 27.58381 | 38964 ft | 451 kts | 217° |
| 2026-04-28 18:53 | 21.14620 | 27.54720 | 38961 ft | 451 kts | 217° |
| 2026-04-28 18:54 | 21.09377 | 27.51083 | 38966 ft | 451 kts | 217° |
| 2026-04-28 18:54 | 21.04105 | 27.47429 | 38967 ft | 451 kts | 217° |
| 2026-04-28 18:55 | 20.98828 | 27.43774 | 38960 ft | 453 kts | 217° |
| 2026-04-28 18:55 | 20.93535 | 27.40112 | 38963 ft | 453 kts | 217° |
| 2026-04-28 18:56 | 20.88244 | 27.36454 | 38977 ft | 453 kts | 217° |
| 2026-04-28 18:56 | 20.82948 | 27.32797 | 38967 ft | 453 kts | 217° |
| 2026-04-28 18:57 | 20.77652 | 27.29142 | 38976 ft | 453 kts | 217° |
| 2026-04-28 18:57 | 20.72379 | 27.25505 | 38967 ft | 454 kts | 217° |
| 2026-04-28 18:58 | 20.67068 | 27.21845 | 38967 ft | 454 kts | 217° |
| 2026-04-28 18:58 | 20.61760 | 27.18192 | 38965 ft | 454 kts | 217° |
| 2026-04-28 18:59 | 20.56451 | 27.14540 | 38966 ft | 454 kts | 217° |
| 2026-04-28 18:59 | 20.51139 | 27.10889 | 38968 ft | 454 kts | 217° |
| 2026-04-28 19:00 | 20.45817 | 27.07235 | 38972 ft | 455 kts | 216° |
| 2026-04-28 19:00 | 20.40491 | 27.03580 | 38968 ft | 455 kts | 216° |
| 2026-04-28 19:01 | 20.35163 | 26.99928 | 38969 ft | 455 kts | 216° |
| 2026-04-28 19:01 | 20.29865 | 26.96299 | 38969 ft | 455 kts | 216° |
| 2026-04-28 19:02 | 20.24527 | 26.92646 | 38970 ft | 455 kts | 216° |
| 2026-04-28 19:02 | 20.19173 | 26.88984 | 38972 ft | 459 kts | 216° |
| 2026-04-28 19:03 | 20.13807 | 26.85318 | 38967 ft | 458 kts | 216° |
| 2026-04-28 19:03 | 20.08439 | 26.81655 | 38968 ft | 458 kts | 216° |
| 2026-04-28 19:04 | 20.03083 | 26.78001 | 38970 ft | 457 kts | 216° |
| 2026-04-28 19:04 | 19.97756 | 26.74370 | 38970 ft | 457 kts | 216° |
| 2026-04-28 19:05 | 19.92375 | 26.70704 | 38969 ft | 461 kts | 216° |
| 2026-04-28 19:05 | 19.86967 | 26.67024 | 38968 ft | 461 kts | 216° |
| 2026-04-28 19:06 | 19.82441 | 26.63948 | 38971 ft | 461 kts | 216° |
| 2026-04-28 19:06 | 19.76161 | 26.59682 | 38969 ft | 461 kts | 216° |
| 2026-04-28 19:07 | 19.70755 | 26.56012 | 38974 ft | 460 kts | 216° |
| 2026-04-28 19:07 | 19.65346 | 26.52343 | 39019 ft | 463 kts | 216° |
| 2026-04-28 19:08 | 19.59922 | 26.48667 | 39019 ft | 463 kts | 216° |
| 2026-04-28 19:08 | 19.54494 | 26.44992 | 39017 ft | 463 kts | 216° |
| 2026-04-28 19:09 | 19.49059 | 26.41316 | 39017 ft | 463 kts | 216° |
| 2026-04-28 19:09 | 19.43631 | 26.37646 | 39015 ft | 463 kts | 216° |
| 2026-04-28 19:10 | 19.38235 | 26.34001 | 39015 ft | 463 kts | 216° |
| 2026-04-28 19:10 | 19.32802 | 26.30334 | 39015 ft | 463 kts | 216° |
| 2026-04-28 19:11 | 19.27371 | 26.26671 | 39011 ft | 463 kts | 216° |
| 2026-04-28 19:11 | 19.21950 | 26.23018 | 39009 ft | 461 kts | 216° |
| 2026-04-28 19:12 | 19.16532 | 26.19370 | 39009 ft | 461 kts | 216° |
| 2026-04-28 19:12 | 19.11103 | 26.15716 | 39003 ft | 464 kts | 216° |
| 2026-04-28 19:13 | 19.05684 | 26.12073 | 39009 ft | 465 kts | 216° |
| 2026-04-28 19:13 | 19.00223 | 26.08405 | 39010 ft | 465 kts | 216° |
| 2026-04-28 19:14 | 18.94767 | 26.04744 | 39010 ft | 465 kts | 216° |
| 2026-04-28 19:14 | 18.89309 | 26.01083 | 39009 ft | 465 kts | 216° |
| 2026-04-28 19:15 | 18.83844 | 25.97420 | 39005 ft | 467 kts | 216° |
| 2026-04-28 19:15 | 18.79278 | 25.94361 | 39007 ft | 467 kts | 215° |
| 2026-04-28 19:16 | 18.72851 | 25.90062 | 39006 ft | 467 kts | 215° |
| 2026-04-28 19:16 | 18.67393 | 25.86413 | 39005 ft | 467 kts | 215° |
| 2026-04-28 19:17 | 18.61893 | 25.82744 | 39004 ft | 467 kts | 215° |
| 2026-04-28 19:17 | 18.56384 | 25.79089 | 38990 ft | 470 kts | 215° |
| 2026-04-28 19:18 | 18.50834 | 25.75414 | 39004 ft | 470 kts | 215° |
| 2026-04-28 19:18 | 18.45292 | 25.71747 | 39005 ft | 470 kts | 215° |
| 2026-04-28 19:19 | 18.39782 | 25.68102 | 39004 ft | 471 kts | 215° |
| 2026-04-28 19:19 | 18.34234 | 25.64434 | 38999 ft | 471 kts | 215° |
| 2026-04-28 19:20 | 18.28692 | 25.60773 | 38992 ft | 471 kts | 214° |
| 2026-04-28 19:20 | 18.23138 | 25.57106 | 38999 ft | 472 kts | 214° |
| 2026-04-28 19:21 | 18.17567 | 25.53431 | 38999 ft | 472 kts | 214° |
| 2026-04-28 19:21 | 18.12039 | 25.49788 | 38999 ft | 472 kts | 214° |
| 2026-04-28 19:22 | 18.07377 | 25.46718 | 38998 ft | 472 kts | 214° |
| 2026-04-28 19:22 | 18.00913 | 25.42463 | 38990 ft | 472 kts | 214° |
| 2026-04-28 19:23 | 17.95361 | 25.38812 | 39001 ft | 471 kts | 214° |
| 2026-04-28 19:23 | 17.89806 | 25.35162 | 39001 ft | 471 kts | 214° |
| 2026-04-28 19:24 | 17.84249 | 25.31513 | 38999 ft | 472 kts | 214° |
| 2026-04-28 19:24 | 17.78707 | 25.27877 | 38998 ft | 472 kts | 214° |
| 2026-04-28 19:25 | 17.73137 | 25.24225 | 39001 ft | 472 kts | 214° |
| 2026-04-28 19:25 | 17.67570 | 25.20577 | 39001 ft | 472 kts | 213° |
| 2026-04-28 19:26 | 17.61990 | 25.16925 | 38999 ft | 472 kts | 213° |
| 2026-04-28 19:26 | 17.56423 | 25.13283 | 39001 ft | 472 kts | 213° |
| 2026-04-28 19:27 | 17.50853 | 25.09642 | 38998 ft | 472 kts | 213° |
| 2026-04-28 19:27 | 17.45313 | 25.06023 | 38998 ft | 472 kts | 213° |
| 2026-04-28 19:28 | 17.39733 | 25.02380 | 38997 ft | 473 kts | 213° |
| 2026-04-28 19:28 | 17.34143 | 24.98734 | 39002 ft | 473 kts | 213° |
| 2026-04-28 19:29 | 17.29497 | 24.95706 | 38996 ft | 473 kts | 213° |
| 2026-04-28 19:29 | 17.22961 | 24.91448 | 38996 ft | 473 kts | 213° |
| 2026-04-28 19:30 | 17.17373 | 24.87811 | 38995 ft | 473 kts | 213° |
| 2026-04-28 19:30 | 17.11810 | 24.84193 | 38995 ft | 475 kts | 213° |
| 2026-04-28 19:31 | 17.06195 | 24.80544 | 38999 ft | 475 kts | 213° |
| 2026-04-28 19:31 | 17.00586 | 24.76901 | 38997 ft | 475 kts | 213° |
| 2026-04-28 19:32 | 16.94965 | 24.73253 | 38993 ft | 475 kts | 213° |
| 2026-04-28 19:32 | 16.89353 | 24.69614 | 38994 ft | 475 kts | 213° |
| 2026-04-28 19:33 | 16.83739 | 24.65975 | 38981 ft | 477 kts | 213° |
| 2026-04-28 19:33 | 16.78095 | 24.62320 | 38996 ft | 477 kts | 213° |
| 2026-04-28 19:34 | 16.72454 | 24.58669 | 38989 ft | 477 kts | 213° |
| 2026-04-28 19:34 | 16.66842 | 24.55040 | 38994 ft | 477 kts | 213° |
| 2026-04-28 19:35 | 16.61195 | 24.51391 | 38987 ft | 477 kts | 213° |
| 2026-04-28 19:35 | 16.55543 | 24.47741 | 38995 ft | 477 kts | 213° |
| 2026-04-28 19:36 | 16.49918 | 24.44111 | 38990 ft | 477 kts | 213° |
| 2026-04-28 19:36 | 16.44268 | 24.40467 | 38995 ft | 477 kts | 213° |
| 2026-04-28 19:37 | 16.40485 | 24.38029 | 38994 ft | 476 kts | 213° |
| 2026-04-28 19:37 | 16.32985 | 24.33198 | 38995 ft | 476 kts | 213° |
| 2026-04-28 19:38 | 16.27350 | 24.29572 | 38978 ft | 476 kts | 213° |
| 2026-04-28 19:38 | 16.21690 | 24.25931 | 38990 ft | 479 kts | 213° |
| 2026-04-28 19:39 | 16.16017 | 24.22285 | 38994 ft | 479 kts | 213° |
| 2026-04-28 19:39 | 16.10380 | 24.18666 | 38992 ft | 479 kts | 213° |
| 2026-04-28 19:40 | 16.04700 | 24.15020 | 38992 ft | 479 kts | 213° |
| 2026-04-28 19:40 | 15.99017 | 24.11375 | 38990 ft | 479 kts | 213° |
| 2026-04-28 19:41 | 15.94294 | 24.08348 | 38990 ft | 480 kts | 213° |
| 2026-04-28 19:41 | 15.88602 | 24.04701 | 38989 ft | 480 kts | 213° |
| 2026-04-28 19:42 | 15.83247 | 24.00620 | 38988 ft | 478 kts | 225° |
| 2026-04-28 19:42 | 15.79320 | 23.95103 | 38988 ft | 476 kts | 242° |
| 2026-04-28 19:43 | 15.76419 | 23.88921 | 38989 ft | 476 kts | 245° |
| 2026-04-28 19:43 | 15.73714 | 23.82645 | 38989 ft | 476 kts | 246° |
| 2026-04-28 19:44 | 15.71002 | 23.76365 | 38989 ft | 476 kts | 246° |
| 2026-04-28 19:44 | 15.68275 | 23.70145 | 38980 ft | 476 kts | 245° |
| 2026-04-28 19:45 | 15.65508 | 23.63882 | 38982 ft | 478 kts | 245° |
| 2026-04-28 19:45 | 15.62737 | 23.57624 | 38984 ft | 478 kts | 245° |
| 2026-04-28 19:46 | 15.59963 | 23.51361 | 38989 ft | 478 kts | 245° |
| 2026-04-28 19:46 | 15.57181 | 23.45085 | 38986 ft | 478 kts | 245° |
| 2026-04-28 19:47 | 15.54423 | 23.38865 | 38982 ft | 477 kts | 245° |
| 2026-04-28 19:47 | 15.51647 | 23.32613 | 38984 ft | 477 kts | 245° |
| 2026-04-28 19:48 | 15.48870 | 23.26362 | 38985 ft | 477 kts | 245° |
| 2026-04-28 19:48 | 15.46092 | 23.20117 | 38984 ft | 477 kts | 245° |
| 2026-04-28 19:49 | 15.43312 | 23.13872 | 38983 ft | 477 kts | 245° |
| 2026-04-28 19:49 | 15.40547 | 23.07664 | 38986 ft | 478 kts | 245° |
| 2026-04-28 19:50 | 15.36353 | 22.98262 | 38976 ft | 478 kts | 245° |
| 2026-04-28 19:51 | 15.33549 | 22.92002 | 38981 ft | 478 kts | 245° |
| 2026-04-28 19:51 | 15.30759 | 22.85789 | 38981 ft | 478 kts | 245° |
| 2026-04-28 19:52 | 15.27949 | 22.79539 | 38983 ft | 478 kts | 245° |
| 2026-04-28 19:52 | 15.25142 | 22.73297 | 38976 ft | 478 kts | 245° |
| 2026-04-28 19:53 | 15.22329 | 22.67048 | 38979 ft | 478 kts | 245° |
| 2026-04-28 19:53 | 15.19518 | 22.60808 | 38978 ft | 478 kts | 245° |
| 2026-04-28 19:54 | 15.16706 | 22.54571 | 38983 ft | 478 kts | 245° |
| 2026-04-28 19:54 | 15.13906 | 22.48367 | 38980 ft | 480 kts | 244° |
| 2026-04-28 19:55 | 15.11307 | 22.42013 | 38976 ft | 479 kts | 253° |
| 2026-04-28 19:55 | 15.10159 | 22.35216 | 38983 ft | 481 kts | 263° |
| 2026-04-28 19:56 | 15.09610 | 22.28314 | 38977 ft | 481 kts | 265° |
| 2026-04-28 19:56 | 15.09168 | 22.21408 | 38979 ft | 481 kts | 265° |
| 2026-04-28 19:57 | 15.08712 | 22.14503 | 38962 ft | 481 kts | 265° |
| 2026-04-28 19:57 | 15.08232 | 22.07632 | 38970 ft | 478 kts | 265° |
| 2026-04-28 19:58 | 15.07740 | 22.00760 | 38970 ft | 478 kts | 264° |
| 2026-04-28 19:58 | 15.07249 | 21.93945 | 38968 ft | 478 kts | 264° |
| 2026-04-28 19:59 | 15.06753 | 21.87075 | 38950 ft | 479 kts | 265° |
| 2026-04-28 19:59 | 15.06256 | 21.80218 | 38959 ft | 479 kts | 264° |
| 2026-04-28 20:00 | 15.05753 | 21.73298 | 38942 ft | 483 kts | 265° |
| 2026-04-28 20:00 | 15.05247 | 21.66364 | 38935 ft | 483 kts | 265° |
| 2026-04-28 20:01 | 15.04739 | 21.59426 | 38938 ft | 483 kts | 265° |
| 2026-04-28 20:01 | 15.04228 | 21.52494 | 38928 ft | 483 kts | 265° |
| 2026-04-28 20:02 | 15.03719 | 21.45604 | 38923 ft | 483 kts | 265° |
| 2026-04-28 20:02 | 15.03205 | 21.38675 | 38918 ft | 483 kts | 265° |
| 2026-04-28 20:03 | 15.02687 | 21.31729 | 38914 ft | 483 kts | 265° |
| 2026-04-28 20:03 | 15.02168 | 21.24793 | 38908 ft | 483 kts | 265° |
| 2026-04-28 20:04 | 15.01647 | 21.17867 | 38908 ft | 483 kts | 265° |
| 2026-04-28 20:04 | 15.01123 | 21.10925 | 38895 ft | 485 kts | 265° |
| 2026-04-28 20:05 | 15.00596 | 21.03964 | 38897 ft | 485 kts | 265° |
| 2026-04-28 20:05 | 15.00067 | 20.97011 | 38895 ft | 485 kts | 265° |
| 2026-04-28 20:06 | 14.99536 | 20.90054 | 38890 ft | 485 kts | 265° |
| 2026-04-28 20:06 | 14.99003 | 20.83098 | 38891 ft | 485 kts | 264° |
| 2026-04-28 20:07 | 14.98470 | 20.76176 | 38892 ft | 486 kts | 265° |
| 2026-04-28 20:07 | 14.97931 | 20.69218 | 38885 ft | 486 kts | 265° |
| 2026-04-28 20:08 | 14.97389 | 20.62242 | 38889 ft | 485 kts | 264° |
| 2026-04-28 20:08 | 14.96845 | 20.55269 | 38880 ft | 486 kts | 264° |
| 2026-04-28 20:09 | 14.96300 | 20.48312 | 38876 ft | 485 kts | 264° |
| 2026-04-28 20:09 | 14.95753 | 20.41359 | 38872 ft | 485 kts | 265° |
| 2026-04-28 20:10 | 14.95205 | 20.34416 | 38879 ft | 485 kts | 265° |
| 2026-04-28 20:10 | 14.94657 | 20.27515 | 38885 ft | 484 kts | 265° |
| 2026-04-28 20:11 | 14.94105 | 20.20574 | 38879 ft | 484 kts | 265° |
| 2026-04-28 20:11 | 14.93550 | 20.13629 | 38883 ft | 484 kts | 265° |
| 2026-04-28 20:12 | 14.92995 | 20.06704 | 38882 ft | 484 kts | 265° |
| 2026-04-28 20:12 | 14.92436 | 19.99769 | 38878 ft | 484 kts | 265° |
| 2026-04-28 20:13 | 14.91876 | 19.92831 | 38877 ft | 484 kts | 265° |
| 2026-04-28 20:13 | 14.91314 | 19.85898 | 38881 ft | 483 kts | 264° |
| 2026-04-28 20:14 | 14.90749 | 19.78964 | 38879 ft | 483 kts | 265° |
| 2026-04-28 20:14 | 14.90187 | 19.72081 | 38882 ft | 483 kts | 265° |
| 2026-04-28 20:15 | 14.89618 | 19.65152 | 38873 ft | 483 kts | 265° |
| 2026-04-28 20:15 | 14.89049 | 19.58236 | 38876 ft | 483 kts | 264° |
| 2026-04-28 20:16 | 14.88476 | 19.51307 | 38878 ft | 483 kts | 264° |
| 2026-04-28 20:16 | 14.87905 | 19.44419 | 38869 ft | 482 kts | 265° |
| 2026-04-28 20:17 | 14.87331 | 19.37517 | 38867 ft | 481 kts | 264° |
| 2026-04-28 20:17 | 14.86753 | 19.30608 | 38867 ft | 482 kts | 264° |
| 2026-04-28 20:18 | 14.86174 | 19.23701 | 38866 ft | 482 kts | 264° |
| 2026-04-28 20:18 | 14.85592 | 19.16781 | 38876 ft | 482 kts | 264° |
| 2026-04-28 20:19 | 14.85010 | 19.09887 | 38878 ft | 480 kts | 264° |
| 2026-04-28 20:19 | 14.84430 | 19.03037 | 38878 ft | 480 kts | 264° |
| 2026-04-28 20:20 | 14.83846 | 18.96163 | 38872 ft | 480 kts | 264° |
| 2026-04-28 20:20 | 14.83258 | 18.89280 | 38866 ft | 480 kts | 264° |
| 2026-04-28 20:21 | 14.82669 | 18.82399 | 38872 ft | 481 kts | 264° |
| 2026-04-28 20:21 | 14.82083 | 18.75565 | 38873 ft | 479 kts | 264° |
| 2026-04-28 20:22 | 14.81492 | 18.68709 | 38873 ft | 478 kts | 264° |
| 2026-04-28 20:22 | 14.80900 | 18.61864 | 38872 ft | 478 kts | 264° |
| 2026-04-28 20:23 | 14.80305 | 18.55008 | 38871 ft | 479 kts | 264° |
| 2026-04-28 20:23 | 14.79708 | 18.48159 | 38874 ft | 479 kts | 264° |
| 2026-04-28 20:24 | 14.79112 | 18.41337 | 38869 ft | 478 kts | 264° |
| 2026-04-28 20:24 | 14.78511 | 18.34490 | 38875 ft | 478 kts | 264° |
| 2026-04-28 20:25 | 14.77909 | 18.27643 | 38871 ft | 478 kts | 264° |
| 2026-04-28 20:25 | 14.77306 | 18.20808 | 38872 ft | 470 kts | 264° |
| 2026-04-28 20:25 | 14.77012 | 18.17482 | 38877 ft | 459 kts | 264° |
| 2026-04-28 20:26 | 14.76719 | 18.14177 | 38877 ft | 466 kts | 264° |
| 2026-04-28 20:26 | 14.76126 | 18.07503 | 38866 ft | 458 kts | 264° |
| 2026-04-28 20:27 | 14.75542 | 18.00962 | 38856 ft | 458 kts | 264° |
| 2026-04-28 20:27 | 14.74958 | 17.94429 | 38860 ft | 460 kts | 264° |
| 2026-04-28 20:28 | 14.74368 | 17.87856 | 38857 ft | 460 kts | 264° |
| 2026-04-28 20:28 | 14.73875 | 17.82383 | 38861 ft | 460 kts | 264° |
| 2026-04-28 20:29 | 14.73185 | 17.74734 | 38865 ft | 459 kts | 264° |
| 2026-04-28 20:29 | 14.72689 | 17.69258 | 38866 ft | 459 kts | 264° |
| 2026-04-28 20:30 | 14.72092 | 17.62690 | 38868 ft | 459 kts | 264° |
| 2026-04-28 20:30 | 14.71493 | 17.56115 | 38861 ft | 459 kts | 264° |
| 2026-04-28 20:31 | 14.70896 | 17.49580 | 38870 ft | 459 kts | 264° |
| 2026-04-28 20:31 | 14.70293 | 17.43012 | 38867 ft | 459 kts | 264° |
| 2026-04-28 20:32 | 14.69689 | 17.36441 | 38868 ft | 459 kts | 264° |
| 2026-04-28 20:32 | 14.69083 | 17.29868 | 38865 ft | 460 kts | 264° |
| 2026-04-28 20:33 | 14.68474 | 17.23290 | 38853 ft | 460 kts | 264° |
| 2026-04-28 20:33 | 14.67863 | 17.16712 | 38868 ft | 460 kts | 264° |
| 2026-04-28 20:34 | 14.67250 | 17.10129 | 38857 ft | 460 kts | 264° |
| 2026-04-28 20:34 | 14.66640 | 17.03597 | 38856 ft | 460 kts | 264° |
| 2026-04-28 20:35 | 14.66023 | 16.97015 | 38852 ft | 461 kts | 264° |
| 2026-04-28 20:35 | 14.65404 | 16.90430 | 38858 ft | 461 kts | 264° |
| 2026-04-28 20:36 | 14.64782 | 16.83835 | 38863 ft | 461 kts | 264° |
| 2026-04-28 20:36 | 14.64157 | 16.77236 | 38865 ft | 461 kts | 264° |
| 2026-04-28 20:37 | 14.63532 | 16.70651 | 38862 ft | 461 kts | 264° |
| 2026-04-28 20:37 | 14.62905 | 16.64060 | 38869 ft | 461 kts | 264° |
| 2026-04-28 20:38 | 14.62279 | 16.57505 | 38858 ft | 462 kts | 264° |
| 2026-04-28 20:38 | 14.61647 | 16.50904 | 38859 ft | 462 kts | 264° |
| 2026-04-28 20:39 | 14.61013 | 16.44304 | 38855 ft | 462 kts | 264° |
| 2026-04-28 20:39 | 14.60378 | 16.37714 | 38856 ft | 462 kts | 264° |
| 2026-04-28 20:40 | 14.59740 | 16.31109 | 38864 ft | 461 kts | 264° |
| 2026-04-28 20:40 | 14.59105 | 16.24557 | 38861 ft | 461 kts | 264° |
| 2026-04-28 20:41 | 14.58463 | 16.17958 | 38864 ft | 461 kts | 264° |
| 2026-04-28 20:41 | 14.57821 | 16.11364 | 38867 ft | 461 kts | 264° |
| 2026-04-28 20:42 | 14.57177 | 16.04779 | 38864 ft | 461 kts | 264° |
| 2026-04-28 20:42 | 14.56531 | 15.98189 | 38870 ft | 461 kts | 265° |
| 2026-04-28 20:43 | 14.55888 | 15.91658 | 38864 ft | 459 kts | 265° |
| 2026-04-28 20:43 | 14.55242 | 15.85102 | 38866 ft | 459 kts | 265° |
| 2026-04-28 20:44 | 14.54593 | 15.78546 | 38866 ft | 459 kts | 265° |
| 2026-04-28 20:44 | 14.53943 | 15.71991 | 38866 ft | 459 kts | 265° |
| 2026-04-28 20:45 | 14.53291 | 15.65436 | 38869 ft | 459 kts | 265° |
| 2026-04-28 20:45 | 14.52638 | 15.58886 | 38867 ft | 458 kts | 265° |
| 2026-04-28 20:46 | 14.51984 | 15.52351 | 38858 ft | 457 kts | 265° |
| 2026-04-28 20:46 | 14.51334 | 15.45868 | 38861 ft | 457 kts | 265° |
| 2026-04-28 20:47 | 14.50677 | 15.39341 | 38864 ft | 457 kts | 265° |
| 2026-04-28 20:47 | 14.50017 | 15.32801 | 38865 ft | 457 kts | 265° |
| 2026-04-28 20:48 | 14.49360 | 15.26312 | 38864 ft | 457 kts | 265° |
| 2026-04-28 20:48 | 14.48699 | 15.19791 | 38869 ft | 456 kts | 265° |
| 2026-04-28 20:49 | 14.48036 | 15.13272 | 38863 ft | 456 kts | 265° |
| 2026-04-28 20:49 | 14.47372 | 15.06758 | 38867 ft | 456 kts | 265° |
| 2026-04-28 20:50 | 14.46705 | 15.00241 | 38865 ft | 456 kts | 265° |
| 2026-04-28 20:50 | 14.46036 | 14.93720 | 38869 ft | 457 kts | 265° |
| 2026-04-28 20:51 | 14.45367 | 14.87229 | 38861 ft | 457 kts | 265° |
| 2026-04-28 20:51 | 14.44690 | 14.80693 | 38864 ft | 458 kts | 265° |
| 2026-04-28 20:52 | 14.44011 | 14.74152 | 38857 ft | 457 kts | 265° |
| 2026-04-28 20:52 | 14.43333 | 14.67628 | 38862 ft | 457 kts | 265° |
| 2026-04-28 20:53 | 14.42315 | 14.57875 | 38864 ft | 457 kts | 265° |
| 2026-04-28 20:53 | 14.41631 | 14.51346 | 38864 ft | 457 kts | 265° |
| 2026-04-28 20:54 | 14.40946 | 14.44820 | 38861 ft | 457 kts | 265° |
| 2026-04-28 20:54 | 14.40264 | 14.38338 | 38853 ft | 457 kts | 265° |
| 2026-04-28 20:55 | 14.39576 | 14.31820 | 38860 ft | 457 kts | 265° |
| 2026-04-28 20:55 | 14.38886 | 14.25279 | 38853 ft | 457 kts | 265° |
| 2026-04-28 20:56 | 14.38196 | 14.18761 | 38855 ft | 458 kts | 265° |
| 2026-04-28 20:56 | 14.37502 | 14.12221 | 38854 ft | 460 kts | 265° |
| 2026-04-28 20:57 | 14.36803 | 14.05656 | 38857 ft | 460 kts | 265° |
| 2026-04-28 20:57 | 14.36107 | 13.99137 | 38852 ft | 460 kts | 265° |
| 2026-04-28 20:58 | 14.35406 | 13.92582 | 38860 ft | 460 kts | 265° |
| 2026-04-28 20:58 | 14.34702 | 13.86019 | 38859 ft | 460 kts | 265° |
| 2026-04-28 20:59 | 14.33996 | 13.79455 | 38861 ft | 462 kts | 264° |
| 2026-04-28 20:59 | 14.33285 | 13.72865 | 38860 ft | 463 kts | 264° |
| 2026-04-28 21:00 | 14.32576 | 13.66311 | 38856 ft | 463 kts | 264° |
| 2026-04-28 21:00 | 14.31861 | 13.59709 | 38859 ft | 463 kts | 264° |
| 2026-04-28 21:01 | 14.31144 | 13.53116 | 38860 ft | 463 kts | 264° |
| 2026-04-28 21:01 | 14.30425 | 13.46515 | 38860 ft | 463 kts | 264° |
| 2026-04-28 21:02 | 14.29703 | 13.39910 | 38862 ft | 464 kts | 264° |
| 2026-04-28 21:02 | 14.28978 | 13.33292 | 38852 ft | 464 kts | 264° |
| 2026-04-28 21:03 | 14.28257 | 13.26723 | 38858 ft | 464 kts | 264° |
| 2026-04-28 21:03 | 14.27528 | 13.20108 | 38859 ft | 464 kts | 264° |
| 2026-04-28 21:04 | 14.26798 | 13.13491 | 38860 ft | 464 kts | 264° |
| 2026-04-28 21:04 | 14.26066 | 13.06880 | 38852 ft | 464 kts | 264° |
| 2026-04-28 21:05 | 14.25332 | 13.00263 | 38857 ft | 464 kts | 264° |
| 2026-04-28 21:05 | 14.24600 | 12.93696 | 38853 ft | 464 kts | 264° |
| 2026-04-28 21:06 | 14.23861 | 12.87075 | 38861 ft | 464 kts | 264° |
| 2026-04-28 21:06 | 14.23120 | 12.80463 | 38853 ft | 464 kts | 264° |
| 2026-04-28 21:07 | 14.22378 | 12.73847 | 38858 ft | 464 kts | 264° |
| 2026-04-28 21:07 | 14.21635 | 12.67250 | 38856 ft | 463 kts | 264° |
| 2026-04-28 21:08 | 14.20891 | 12.60655 | 38857 ft | 463 kts | 264° |
| 2026-04-28 21:08 | 14.20152 | 12.54114 | 38852 ft | 463 kts | 264° |
| 2026-04-28 21:09 | 14.19405 | 12.47522 | 38851 ft | 463 kts | 264° |
| 2026-04-28 21:09 | 14.18656 | 12.40931 | 38851 ft | 463 kts | 264° |
| 2026-04-28 21:10 | 14.17907 | 12.34357 | 38856 ft | 461 kts | 264° |
| 2026-04-28 21:10 | 14.17158 | 12.27796 | 38850 ft | 460 kts | 264° |
| 2026-04-28 21:11 | 14.16409 | 12.21244 | 38852 ft | 460 kts | 264° |
| 2026-04-28 21:11 | 14.15662 | 12.14737 | 38850 ft | 460 kts | 264° |
| 2026-04-28 21:12 | 14.14909 | 12.08186 | 38854 ft | 460 kts | 264° |
| 2026-04-28 21:12 | 14.14153 | 12.01626 | 38857 ft | 460 kts | 264° |
| 2026-04-28 21:13 | 14.13398 | 11.95094 | 38850 ft | 458 kts | 263° |
| 2026-04-28 21:13 | 14.12643 | 11.88576 | 38861 ft | 458 kts | 263° |
| 2026-04-28 21:14 | 14.11886 | 11.82052 | 38851 ft | 458 kts | 263° |
| 2026-04-28 21:14 | 14.11132 | 11.75577 | 38862 ft | 458 kts | 263° |
| 2026-04-28 21:15 | 14.10371 | 11.69049 | 38852 ft | 458 kts | 263° |
| 2026-04-28 21:15 | 14.09609 | 11.62533 | 38862 ft | 458 kts | 263° |
| 2026-04-28 21:16 | 14.08846 | 11.56026 | 38861 ft | 457 kts | 263° |
| 2026-04-28 21:16 | 14.08083 | 11.49530 | 38864 ft | 457 kts | 263° |
| 2026-04-28 21:17 | 14.07317 | 11.43019 | 38859 ft | 457 kts | 263° |
| 2026-04-28 21:17 | 14.06550 | 11.36524 | 38853 ft | 457 kts | 263° |
| 2026-04-28 21:18 | 14.05787 | 11.30066 | 38867 ft | 457 kts | 263° |
| 2026-04-28 21:18 | 14.05016 | 11.23566 | 38862 ft | 456 kts | 263° |
| 2026-04-28 21:19 | 14.04246 | 11.17082 | 38857 ft | 456 kts | 263° |
| 2026-04-28 21:19 | 14.03605 | 11.11700 | 38856 ft | 456 kts | 263° |
| 2026-04-28 21:20 | 14.02831 | 11.05215 | 38861 ft | 456 kts | 263° |
| 2026-04-28 21:20 | 14.02057 | 10.98740 | 38860 ft | 455 kts | 263° |
| 2026-04-28 21:21 | 14.01280 | 10.92265 | 38860 ft | 456 kts | 263° |
| 2026-04-28 21:21 | 14.00502 | 10.85783 | 38851 ft | 456 kts | 263° |
| 2026-04-28 21:22 | 13.99727 | 10.79349 | 38862 ft | 456 kts | 263° |
| 2026-04-28 21:22 | 13.98916 | 10.72874 | 38858 ft | 456 kts | 260° |
| 2026-04-28 21:23 | 13.96992 | 10.66666 | 38857 ft | 457 kts | 244° |
| 2026-04-28 21:23 | 13.93342 | 10.61298 | 38859 ft | 461 kts | 231° |
| 2026-04-28 21:24 | 13.89057 | 10.56373 | 38864 ft | 462 kts | 228° |
| 2026-04-28 21:24 | 13.84681 | 10.51533 | 38856 ft | 460 kts | 228° |
| 2026-04-28 21:25 | 13.80363 | 10.46726 | 38851 ft | 460 kts | 229° |
| 2026-04-28 21:25 | 13.76043 | 10.41872 | 38852 ft | 460 kts | 229° |
| 2026-04-28 21:26 | 13.71732 | 10.37013 | 38850 ft | 460 kts | 229° |
| 2026-04-28 21:26 | 13.67420 | 10.32154 | 38854 ft | 460 kts | 229° |
| 2026-04-28 21:27 | 13.63102 | 10.27293 | 38843 ft | 460 kts | 229° |
| 2026-04-28 21:27 | 13.58778 | 10.22430 | 38848 ft | 461 kts | 229° |
| 2026-04-28 21:28 | 13.54447 | 10.17562 | 38851 ft | 461 kts | 228° |
| 2026-04-28 21:28 | 13.50121 | 10.12703 | 38851 ft | 460 kts | 228° |
| 2026-04-28 21:29 | 13.45847 | 10.07854 | 38842 ft | 460 kts | 229° |
| 2026-04-28 21:29 | 13.41615 | 10.02930 | 38849 ft | 460 kts | 229° |
| 2026-04-28 21:30 | 13.37394 | 9.98001 | 38848 ft | 460 kts | 229° |
| 2026-04-28 21:30 | 13.33153 | 9.93063 | 38850 ft | 460 kts | 229° |
| 2026-04-28 21:31 | 13.28920 | 9.88147 | 38845 ft | 460 kts | 229° |
| 2026-04-28 21:31 | 13.24690 | 9.83238 | 38847 ft | 461 kts | 229° |
| 2026-04-28 21:32 | 13.20458 | 9.78331 | 38092 ft | 459 kts | 229° |
| 2026-04-28 21:32 | 13.18325 | 9.75858 | 37101 ft | 466 kts | 229° |
| 2026-04-28 21:32 | 13.16156 | 9.73344 | 36126 ft | 473 kts | 230° |
| 2026-04-28 21:33 | 13.13991 | 9.70835 | 35372 ft | 475 kts | 230° |
| 2026-04-28 21:33 | 13.11802 | 9.68300 | 34784 ft | 474 kts | 230° |
| 2026-04-28 21:33 | 13.09617 | 9.65770 | 34161 ft | 473 kts | 230° |
| 2026-04-28 21:33 | 13.07432 | 9.63242 | 33401 ft | 474 kts | 230° |
| 2026-04-28 21:34 | 13.05237 | 9.60701 | 32517 ft | 477 kts | 229° |
| 2026-04-28 21:34 | 13.03026 | 9.58141 | 31680 ft | 479 kts | 229° |
| 2026-04-28 21:34 | 13.00809 | 9.55577 | 30817 ft | 481 kts | 229° |
| 2026-04-28 21:34 | 12.98599 | 9.53022 | 30232 ft | 477 kts | 229° |
| 2026-04-28 21:35 | 12.96407 | 9.50488 | 29669 ft | 471 kts | 229° |
| 2026-04-28 21:35 | 12.94269 | 9.48019 | 29034 ft | 466 kts | 229° |
| 2026-04-28 21:35 | 12.92131 | 9.45549 | 28456 ft | 460 kts | 229° |
| 2026-04-28 21:35 | 12.89931 | 9.43168 | 27728 ft | 459 kts | 226° |
| 2026-04-28 21:36 | 12.87689 | 9.40835 | 27036 ft | 459 kts | 225° |
| 2026-04-28 21:36 | 12.85441 | 9.38511 | 26370 ft | 458 kts | 225° |
| 2026-04-28 21:36 | 12.83198 | 9.36200 | 25704 ft | 455 kts | 225° |
| 2026-04-28 21:36 | 12.80967 | 9.33906 | 25063 ft | 453 kts | 225° |
| 2026-04-28 21:37 | 12.78747 | 9.31625 | 24439 ft | 449 kts | 225° |
| 2026-04-28 21:37 | 12.76546 | 9.29367 | 23825 ft | 446 kts | 225° |
| 2026-04-28 21:37 | 12.74353 | 9.27117 | 23101 ft | 445 kts | 225° |
| 2026-04-28 21:37 | 12.72193 | 9.24902 | 22277 ft | 444 kts | 225° |
| 2026-04-28 21:38 | 12.70008 | 9.22663 | 21486 ft | 443 kts | 225° |
| 2026-04-28 21:38 | 12.67841 | 9.20442 | 20751 ft | 440 kts | 225° |
| 2026-04-28 21:38 | 12.65685 | 9.18233 | 20048 ft | 437 kts | 225° |
| 2026-04-28 21:38 | 12.63546 | 9.16043 | 19345 ft | 434 kts | 225° |
| 2026-04-28 21:39 | 12.61416 | 9.13862 | 18623 ft | 432 kts | 225° |
| 2026-04-28 21:39 | 12.59301 | 9.11696 | 17819 ft | 430 kts | 225° |
| 2026-04-28 21:39 | 12.57204 | 9.09550 | 16937 ft | 417 kts | 224° |
| 2026-04-28 21:39 | 12.55182 | 9.07479 | 16077 ft | 406 kts | 224° |
| 2026-04-28 21:40 | 12.53196 | 9.05448 | 15241 ft | 401 kts | 224° |
| 2026-04-28 21:40 | 12.51264 | 9.03471 | 14361 ft | 393 kts | 223° |
| 2026-04-28 21:40 | 12.49354 | 9.01517 | 13504 ft | 383 kts | 223° |
| 2026-04-28 21:40 | 12.47488 | 8.99608 | 12559 ft | 374 kts | 223° |
| 2026-04-28 21:41 | 12.45665 | 8.97745 | 11634 ft | 367 kts | 223° |
| 2026-04-28 21:41 | 12.43876 | 8.95918 | 10733 ft | 359 kts | 223° |
| 2026-04-28 21:41 | 12.42122 | 8.94126 | 9869 ft | 353 kts | 223° |
| 2026-04-28 21:41 | 12.40397 | 8.92365 | 8993 ft | 347 kts | 223° |
| 2026-04-28 21:42 | 12.38734 | 8.90665 | 8594 ft | 327 kts | 223° |
| 2026-04-28 21:42 | 12.37193 | 8.89090 | 8235 ft | 309 kts | 223° |
| 2026-04-28 21:42 | 12.35696 | 8.87561 | 7817 ft | 297 kts | 223° |
| 2026-04-28 21:42 | 12.34260 | 8.86096 | 7534 ft | 288 kts | 223° |
| 2026-04-28 21:43 | 12.32847 | 8.84655 | 7231 ft | 286 kts | 223° |
| 2026-04-28 21:43 | 12.31420 | 8.83202 | 6998 ft | 294 kts | 223° |
| 2026-04-28 21:43 | 12.29956 | 8.81711 | 6774 ft | 298 kts | 223° |
| 2026-04-28 21:43 | 12.28491 | 8.80218 | 6558 ft | 297 kts | 223° |
| 2026-04-28 21:44 | 12.27029 | 8.78726 | 6328 ft | 296 kts | 223° |
| 2026-04-28 21:44 | 12.25573 | 8.77241 | 6124 ft | 295 kts | 223° |
| 2026-04-28 21:44 | 12.24144 | 8.75784 | 6021 ft | 284 kts | 224° |
| 2026-04-28 21:44 | 12.22784 | 8.74395 | 5953 ft | 267 kts | 223° |
| 2026-04-28 21:45 | 12.21503 | 8.73134 | 5856 ft | 251 kts | 218° |
| 2026-04-28 21:45 | 12.20093 | 8.72161 | 5751 ft | 240 kts | 208° |
| 2026-04-28 21:45 | 12.18654 | 8.71328 | 5646 ft | 237 kts | 206° |
| 2026-04-28 21:45 | 12.17213 | 8.70519 | 5529 ft | 236 kts | 206° |
| 2026-04-28 21:46 | 12.15774 | 8.69713 | 5408 ft | 235 kts | 206° |
| 2026-04-28 21:46 | 12.14370 | 8.68854 | 5220 ft | 236 kts | 216° |
| 2026-04-28 21:46 | 12.13307 | 8.67576 | 5052 ft | 237 kts | 236° |
| 2026-04-28 21:46 | 12.12480 | 8.66122 | 4822 ft | 237 kts | 240° |
| 2026-04-28 21:47 | 12.11722 | 8.64695 | 4555 ft | 223 kts | 241° |
| 2026-04-28 21:47 | 12.10999 | 8.63333 | 4162 ft | 215 kts | 240° |
| 2026-04-28 21:47 | 12.10276 | 8.61988 | 3627 ft | 215 kts | 241° |
| 2026-04-28 21:47 | 12.09572 | 8.60666 | 3216 ft | 208 kts | 241° |
| 2026-04-28 21:48 | 12.08903 | 8.59417 | 2935 ft | 192 kts | 242° |
| 2026-04-28 21:48 | 12.08276 | 8.58247 | 2591 ft | 183 kts | 241° |
| 2026-04-28 21:48 | 12.07672 | 8.57149 | 2346 ft | 171 kts | 241° |
| 2026-04-28 21:48 | 12.07133 | 8.56127 | 2153 ft | 156 kts | 241° |
| 2026-04-28 21:49 | 12.06628 | 8.55195 | 1892 ft | 146 kts | 240° |
| 2026-04-28 21:49 | 12.06149 | 8.54323 | 1698 ft | 135 kts | 242° |
| 2026-04-28 21:49 | 12.05705 | 8.53497 | 1567 ft | 132 kts | 241° |
| 2026-04-28 21:49 | 12.05275 | 8.52711 | 1526 ft | 112 kts | 241° |
| 2026-04-28 21:50 | 12.04995 | 8.52196 | 1539 ft | 54 kts | 241° |
| 2026-04-28 21:50 | 12.04868 | 8.51963 | 1553 ft | 35 kts | 241° |
| 2026-04-28 21:50 | 12.04748 | 8.51743 | 1556 ft | 35 kts | 241° |
| 2026-04-28 21:50 | 12.04624 | 8.51564 | 1559 ft | 22 kts | 224° |
| 2026-04-28 21:51 | 12.04504 | 8.51470 | 1563 ft | 20 kts | 212° |
| 2026-04-28 21:51 | 12.04395 | 8.51450 | 1566 ft | 15 kts | 207° |
| 2026-04-28 21:51 | 12.04338 | 8.51367 | 1568 ft | 16 kts | 242° |
| 2026-04-28 21:51 | 12.04279 | 8.51253 | 1570 ft | 19 kts | 242° |
| 2026-04-28 21:52 | 12.04212 | 8.51137 | 1573 ft | 19 kts | 239° |
| 2026-04-28 21:52 | 12.04143 | 8.51007 | 1575 ft | 22 kts | 242° |
| 2026-04-28 21:52 | 12.04063 | 8.50964 | 1577 ft | 13 kts | 139° |
| 2026-04-28 21:52 | 12.04091 | 8.51066 | 1575 ft | 20 kts | 62° |
| 2026-04-28 21:53 | 12.04152 | 8.51183 | 1573 ft | 16 kts | 62° |
| 2026-04-28 21:53 | 12.04154 | 8.51222 | 1573 ft | 3 kts | 136° |
| 2026-04-28 21:53 | 12.04105 | 8.51249 | 1573 ft | 0 kts | 152° |